Terminal Aerodrome Forecast
Issued by NWS Wilmington, NC

Home | Current Version | Previous Version | Text Only | Print | Product List | Glossary On
Versions: 1 2 3 4 5 6 7 8 9 10 11 12
000
FTUS42 KILM 290500
TAFFLO
TAF
KFLO 290520Z 2906/3006 23003KT P6SM SKC
      TEMPO 2909/2912 5SM BR
     FM291600 14007KT P6SM FEW060
     FM300200 16005KT P6SM FEW050=

USA.gov is the U.S. government's official web portal to all federal, state and local government web resources and services.